createdAt,value
2023-03-29T00:01:54.915Z,99638.13
2023-03-29T00:04:23.962Z,99614.84
2023-03-29T00:06:53.673Z,99637.25
2023-03-29T00:09:24.096Z,99663.94
2023-03-29T00:11:53.125Z,99622.00
2023-03-29T00:14:24.381Z,99589.63
2023-03-29T00:16:53.819Z,99656.28
2023-03-29T00:19:22.924Z,99626.25
2023-03-29T00:21:51.785Z,99651.16
2023-03-29T00:24:21.911Z,99624.56
2023-03-29T00:26:50.922Z,99592.78
2023-03-29T00:29:19.677Z,99644.44
2023-03-29T00:31:54.638Z,99637.63
2023-03-29T00:34:25.157Z,99630.75
2023-03-29T00:36:59.164Z,99623.13
2023-03-29T00:39:28.617Z,99620.50
2023-03-29T00:41:58.283Z,99651.63
2023-03-29T00:44:55.106Z,99648.97
2023-03-29T00:47:29.974Z,99559.81
2023-03-29T00:50:06.903Z,99569.28
2023-03-29T00:52:40.412Z,99608.66
2023-03-29T00:55:14.722Z,99638.69
2023-03-29T00:57:47.054Z,99643.88
2023-03-29T01:00:21.663Z,99652.41
2023-03-29T01:03:00.439Z,99615.63
2023-03-29T01:05:35.310Z,99630.97
2023-03-29T01:08:19.023Z,99645.38
2023-03-29T01:11:02.962Z,99620.44
2023-03-29T01:13:52.520Z,99629.16
2023-03-29T01:16:22.967Z,99563.00
2023-03-29T01:18:53.205Z,99613.38
2023-03-29T01:21:42.244Z,99633.00
2023-03-29T01:24:52.666Z,99627.72
2023-03-29T01:27:32.689Z,99638.13
2023-03-29T01:30:09.694Z,99625.38
2023-03-29T01:33:08.396Z,99608.06
2023-03-29T01:35:43.390Z,99638.06
2023-03-29T01:38:35.613Z,99635.47
2023-03-29T01:41:04.872Z,99602.84
2023-03-29T01:43:49.932Z,99531.50
2023-03-29T01:46:37.122Z,99631.78
2023-03-29T01:49:33.219Z,99624.63
2023-03-29T01:52:16.899Z,99616.03
2023-03-29T01:55:16.344Z,99634.56
2023-03-29T01:57:48.254Z,99610.00
2023-03-29T02:00:25.561Z,99615.16
2023-03-29T02:03:02.113Z,99620.56
2023-03-29T02:05:32.460Z,99596.16
2023-03-29T02:08:06.021Z,99610.72
2023-03-29T02:10:36.078Z,99617.50
2023-03-29T02:13:06.279Z,99641.75
2023-03-29T02:15:35.317Z,99636.06
2023-03-29T02:18:05.035Z,99618.41
2023-03-29T02:20:39.711Z,99632.00
2023-03-29T02:23:24.114Z,99652.09
2023-03-29T02:25:54.996Z,99648.03
2023-03-29T02:28:26.198Z,99608.78
2023-03-29T02:31:09.268Z,99647.34
2023-03-29T02:33:53.916Z,99638.16
2023-03-29T02:36:39.119Z,99637.19
2023-03-29T02:39:10.662Z,99636.81
2023-03-29T02:41:41.564Z,99636.19
2023-03-29T02:44:14.908Z,99628.72
2023-03-29T02:46:44.778Z,99617.16
2023-03-29T02:49:14.388Z,99609.19
2023-03-29T02:51:44.443Z,99623.72
2023-03-29T02:54:19.278Z,99637.94
2023-03-29T02:56:59.081Z,99640.78
2023-03-29T02:59:30.623Z,99606.47
2023-03-29T03:02:01.339Z,99650.16
2023-03-29T03:04:30.537Z,99636.16
2023-03-29T03:06:59.742Z,99640.25
2023-03-29T03:09:29.175Z,99626.88
2023-03-29T03:11:58.345Z,99614.25
2023-03-29T03:14:29.182Z,99614.16
2023-03-29T03:17:00.676Z,99619.09
2023-03-29T03:19:31.403Z,99647.53
2023-03-29T03:22:00.405Z,99651.50
2023-03-29T03:24:29.276Z,99653.03
2023-03-29T03:26:58.893Z,99564.13
2023-03-29T03:29:29.120Z,99664.75
2023-03-29T03:32:00.900Z,99652.47
2023-03-29T03:34:52.568Z,99642.22
2023-03-29T03:37:24.792Z,99661.81
2023-03-29T03:39:54.356Z,99645.84
2023-03-29T03:42:23.998Z,99592.50
2023-03-29T03:44:52.859Z,99627.59
2023-03-29T03:47:47.970Z,99669.47
2023-03-29T03:50:37.211Z,99633.75
2023-03-29T03:53:08.195Z,99671.75
2023-03-29T03:55:57.202Z,99656.06
2023-03-29T03:58:31.555Z,99597.38
2023-03-29T04:01:01.209Z,99646.38
2023-03-29T04:03:40.662Z,99656.22
2023-03-29T04:06:13.279Z,99679.78
2023-03-29T04:09:00.511Z,99654.13
2023-03-29T04:11:37.514Z,99629.00
2023-03-29T04:14:07.571Z,99665.13
2023-03-29T04:17:04.343Z,99657.03
2023-03-29T04:19:59.152Z,99665.59
2023-03-29T04:22:30.930Z,99677.34
2023-03-29T04:25:00.216Z,99653.50
2023-03-29T04:27:49.780Z,99654.84
2023-03-29T04:30:38.921Z,99647.84
2023-03-29T04:33:16.696Z,99660.03
2023-03-29T04:35:50.276Z,99655.41
2023-03-29T04:38:23.895Z,99640.19
2023-03-29T04:40:56.518Z,99651.06
2023-03-29T04:43:35.297Z,99619.31
2023-03-29T04:46:27.279Z,99624.97
2023-03-29T04:49:14.539Z,99670.81
2023-03-29T04:51:47.246Z,99664.25
2023-03-29T04:54:19.330Z,99661.31
2023-03-29T04:57:09.348Z,99623.28
2023-03-29T04:59:56.711Z,99647.63
2023-03-29T05:02:48.178Z,99641.28
2023-03-29T05:05:17.442Z,99634.56
2023-03-29T05:07:48.100Z,99657.97
2023-03-29T05:10:20.857Z,99638.16
2023-03-29T05:12:54.757Z,99641.50
2023-03-29T05:15:24.744Z,99645.25
2023-03-29T05:17:54.285Z,99652.09
2023-03-29T05:20:23.566Z,99667.22
2023-03-29T05:22:53.402Z,99660.56
2023-03-29T05:25:45.443Z,99656.75
2023-03-29T05:28:14.456Z,99654.63
2023-03-29T05:30:43.896Z,99660.81
2023-03-29T05:33:21.717Z,99682.47
2023-03-29T05:35:50.518Z,99645.78
2023-03-29T05:38:19.435Z,99662.88
2023-03-29T05:40:48.399Z,99648.25
2023-03-29T05:43:37.452Z,99649.00
2023-03-29T05:46:06.952Z,99674.53
2023-03-29T05:48:37.455Z,99677.59
2023-03-29T05:51:06.734Z,99605.69
2023-03-29T05:53:36.094Z,99664.66
2023-03-29T05:56:05.134Z,99683.88
2023-03-29T05:58:34.095Z,99690.78
2023-03-29T06:01:05.108Z,99689.19
2023-03-29T06:03:54.453Z,99704.56
2023-03-29T06:06:27.890Z,99706.25
2023-03-29T06:08:57.575Z,99709.88
2023-03-29T06:11:33.755Z,99715.84
2023-03-29T06:14:05.640Z,99691.00
2023-03-29T06:16:39.629Z,99683.78
2023-03-29T06:19:10.381Z,99720.19
2023-03-29T06:21:42.138Z,99721.97
2023-03-29T06:24:14.756Z,99725.78
2023-03-29T06:26:48.928Z,99736.00
2023-03-29T06:29:18.201Z,99706.06
2023-03-29T06:31:48.870Z,99714.34
2023-03-29T06:34:38.486Z,99657.97
2023-03-29T06:37:29.979Z,99754.47
2023-03-29T06:40:11.880Z,99746.69
2023-03-29T06:42:44.300Z,99754.91
2023-03-29T06:45:39.299Z,99778.47
2023-03-29T06:48:15.127Z,99765.63
2023-03-29T06:50:44.413Z,99742.66
2023-03-29T06:53:16.622Z,99745.44
2023-03-29T06:55:53.297Z,99766.72
2023-03-29T06:58:41.580Z,99742.59
2023-03-29T07:01:29.584Z,99776.03
2023-03-29T07:04:10.152Z,99786.50
2023-03-29T07:07:12.841Z,99781.72
2023-03-29T07:09:41.764Z,99762.13
2023-03-29T07:12:39.872Z,99783.97
2023-03-29T07:15:10.338Z,99793.22
2023-03-29T07:17:59.678Z,99769.38
2023-03-29T07:20:29.119Z,99790.53
2023-03-29T07:23:12.148Z,99777.78
2023-03-29T07:25:41.822Z,99777.19
2023-03-29T07:28:11.827Z,99784.19
2023-03-29T07:30:41.060Z,99792.44
2023-03-29T07:33:19.674Z,99783.00
2023-03-29T07:35:56.154Z,99812.59
2023-03-29T07:38:25.986Z,99800.84
2023-03-29T07:41:08.838Z,99757.13
2023-03-29T07:43:46.255Z,99819.34
2023-03-29T07:46:18.140Z,99800.38
2023-03-29T07:48:47.357Z,99735.03
2023-03-29T07:51:17.365Z,99803.91
2023-03-29T07:53:50.033Z,99822.19
2023-03-29T07:56:45.352Z,99815.53
2023-03-29T07:59:21.451Z,99827.59
2023-03-29T08:02:03.693Z,99788.56
2023-03-29T08:04:37.395Z,99836.50
2023-03-29T08:07:22.669Z,99818.25
2023-03-29T08:10:08.176Z,99845.50
2023-03-29T08:12:52.930Z,99839.75
2023-03-29T08:15:28.820Z,99830.59
2023-03-29T08:17:57.781Z,99845.94
2023-03-29T08:20:28.336Z,99783.91
2023-03-29T08:23:02.490Z,99863.38
2023-03-29T08:25:51.725Z,99850.03
2023-03-29T08:28:20.734Z,99824.59
2023-03-29T08:30:53.611Z,99845.50
2023-03-29T08:33:23.298Z,99820.97
2023-03-29T08:36:12.613Z,99865.00
2023-03-29T08:38:41.542Z,99881.66
2023-03-29T08:41:44.957Z,99804.25
2023-03-29T08:44:16.792Z,99895.97
2023-03-29T08:47:12.496Z,99855.09
2023-03-29T08:49:49.333Z,99856.47
2023-03-29T08:52:43.708Z,99898.69
2023-03-29T08:55:44.639Z,99894.03
2023-03-29T08:58:43.445Z,99904.31
2023-03-29T09:01:12.655Z,99898.78
2023-03-29T09:04:12.166Z,99908.31
2023-03-29T09:07:03.164Z,99929.91
2023-03-29T09:09:39.876Z,99908.97
2023-03-29T09:12:47.383Z,99943.44
2023-03-29T09:15:41.451Z,99951.22
2023-03-29T09:18:44.757Z,99954.75
2023-03-29T09:21:31.919Z,99942.84
2023-03-29T09:24:27.918Z,99973.53
2023-03-29T09:27:18.582Z,99852.03
2023-03-29T09:29:57.833Z,99982.38
2023-03-29T09:32:55.427Z,99989.09
2023-03-29T09:35:45.460Z,99978.03
2023-03-29T09:38:16.115Z,99961.16
2023-03-29T09:40:56.126Z,99980.94
2023-03-29T09:43:38.792Z,100011.34
2023-03-29T09:46:17.643Z,100038.47
2023-03-29T09:48:48.384Z,100021.84
2023-03-29T09:51:18.790Z,100036.53
2023-03-29T09:53:48.003Z,100049.75
2023-03-29T09:56:35.526Z,100046.47
2023-03-29T09:59:14.273Z,100027.53
2023-03-29T10:01:48.061Z,100047.94
2023-03-29T10:04:19.048Z,99948.88
2023-03-29T10:06:55.001Z,99998.88
2023-03-29T10:09:25.689Z,100058.47
2023-03-29T10:12:04.522Z,100035.41
2023-03-29T10:14:34.223Z,100061.31
2023-03-29T10:17:08.069Z,100046.09
2023-03-29T10:19:37.619Z,100097.97
2023-03-29T10:22:18.491Z,100129.25
2023-03-29T10:24:55.991Z,100081.56
2023-03-29T10:27:32.673Z,100101.50
2023-03-29T10:30:09.932Z,100092.75
2023-03-29T10:32:40.513Z,100077.38
2023-03-29T10:35:18.532Z,100089.50
2023-03-29T10:37:55.632Z,100096.47
2023-03-29T10:40:27.297Z,100120.84
2023-03-29T10:43:00.590Z,100117.28
2023-03-29T10:45:38.512Z,100141.72
2023-03-29T10:48:12.449Z,100089.88
2023-03-29T10:50:42.393Z,100091.66
2023-03-29T10:53:36.180Z,100116.59
2023-03-29T10:56:30.110Z,100119.38
2023-03-29T10:59:09.987Z,100122.06
2023-03-29T11:02:19.208Z,100141.72
2023-03-29T11:04:59.942Z,100145.44
2023-03-29T11:07:51.855Z,100170.81
2023-03-29T11:10:45.411Z,100164.88
2023-03-29T11:13:21.598Z,100078.09
2023-03-29T11:16:13.933Z,100150.38
2023-03-29T11:19:28.010Z,100166.19
2023-03-29T11:22:26.229Z,100151.59
2023-03-29T11:25:03.958Z,100172.91
2023-03-29T11:27:32.781Z,100156.41
2023-03-29T11:30:26.772Z,100171.50
2023-03-29T11:33:09.445Z,100173.59
2023-03-29T11:36:17.343Z,100192.34
2023-03-29T11:39:06.488Z,100173.59
2023-03-29T11:41:40.240Z,100198.25
2023-03-29T11:44:10.464Z,100213.94
2023-03-29T11:47:01.830Z,100192.84
2023-03-29T11:49:44.447Z,100213.78
2023-03-29T11:52:45.346Z,100221.19
2023-03-29T11:55:17.122Z,100229.09
2023-03-29T11:58:20.077Z,100223.19
2023-03-29T12:01:17.905Z,100215.56
2023-03-29T12:03:49.545Z,100224.19
2023-03-29T12:06:29.337Z,100189.72
2023-03-29T12:09:56.392Z,100222.63
2023-03-29T12:12:33.749Z,100222.50
2023-03-29T12:15:08.262Z,100209.56
2023-03-29T12:17:47.921Z,100221.56
2023-03-29T12:20:24.057Z,100249.09
2023-03-29T12:22:56.387Z,100167.53
2023-03-29T12:25:31.587Z,100226.00
2023-03-29T12:28:17.653Z,100241.81
2023-03-29T12:31:02.367Z,100262.63
2023-03-29T12:33:37.236Z,100274.03
2023-03-29T12:36:48.451Z,100281.97
2023-03-29T12:39:41.670Z,100269.41
2023-03-29T12:42:30.861Z,100261.75
2023-03-29T12:45:31.490Z,100244.59
2023-03-29T12:48:02.143Z,100292.06
2023-03-29T12:50:48.390Z,100311.91
2023-03-29T12:53:42.841Z,100262.13
2023-03-29T12:56:22.384Z,100290.66
2023-03-29T12:58:57.785Z,100294.09
2023-03-29T13:01:36.054Z,100324.44
2023-03-29T13:04:20.544Z,100236.72
2023-03-29T13:07:04.355Z,100337.69
2023-03-29T13:10:00.524Z,100328.31
2023-03-29T13:12:46.594Z,100349.03
2023-03-29T13:15:18.240Z,100351.78
2023-03-29T13:17:59.117Z,100343.19
2023-03-29T13:20:38.884Z,100350.25
2023-03-29T13:23:28.012Z,100348.78
2023-03-29T13:26:09.537Z,100362.63
2023-03-29T13:29:05.654Z,100369.69
2023-03-29T13:32:08.570Z,100341.25
2023-03-29T13:35:11.230Z,100384.56
2023-03-29T13:37:57.750Z,100382.06
2023-03-29T13:40:35.374Z,100380.44
2023-03-29T13:43:28.429Z,100388.41
2023-03-29T13:45:58.495Z,100385.88
2023-03-29T13:48:30.979Z,100388.53
2023-03-29T13:51:01.964Z,100402.50
2023-03-29T13:53:33.836Z,100409.50
2023-03-29T13:56:03.886Z,100400.88
2023-03-29T13:58:47.292Z,100428.66
2023-03-29T14:01:30.941Z,100408.78
2023-03-29T14:04:00.909Z,100407.94
2023-03-29T14:06:37.553Z,100359.69
2023-03-29T14:09:09.663Z,100428.78
2023-03-29T14:11:39.680Z,100409.84
2023-03-29T14:14:11.287Z,100361.66
2023-03-29T14:16:42.902Z,100442.88
2023-03-29T14:19:31.270Z,100354.06
2023-03-29T14:22:08.699Z,100450.06
2023-03-29T14:24:48.882Z,100444.88
2023-03-29T14:27:18.402Z,100386.16
2023-03-29T14:29:49.915Z,100494.28
2023-03-29T14:32:21.595Z,100471.00
2023-03-29T14:34:51.663Z,100456.28
2023-03-29T14:37:29.818Z,100503.94
2023-03-29T14:40:00.332Z,100489.25
2023-03-29T14:42:30.167Z,100459.91
2023-03-29T14:45:10.173Z,100514.44
2023-03-29T14:47:41.417Z,100481.56
2023-03-29T14:50:25.325Z,100476.41
2023-03-29T14:52:54.833Z,100481.59
2023-03-29T14:55:24.693Z,100521.41
2023-03-29T14:57:56.228Z,100493.78
2023-03-29T15:00:32.178Z,100498.09
2023-03-29T15:03:03.291Z,100544.84
2023-03-29T15:05:41.913Z,100555.25
2023-03-29T15:08:24.588Z,100530.16
2023-03-29T15:10:53.739Z,100461.81
2023-03-29T15:13:25.276Z,100563.94
2023-03-29T15:15:58.768Z,100546.66
2023-03-29T15:18:42.074Z,100520.69
2023-03-29T15:21:14.853Z,100544.91
2023-03-29T15:23:52.218Z,100536.25
2023-03-29T15:26:39.045Z,100533.69
2023-03-29T15:29:10.734Z,100561.38
2023-03-29T15:31:42.778Z,100580.41
2023-03-29T15:34:14.635Z,100523.28
2023-03-29T15:36:47.174Z,100551.84
2023-03-29T15:39:18.373Z,100583.03
2023-03-29T15:41:50.384Z,100577.81
2023-03-29T15:44:27.337Z,100563.09
2023-03-29T15:46:58.556Z,100573.47
2023-03-29T15:49:28.336Z,100550.09
2023-03-29T15:51:57.474Z,100553.59
2023-03-29T15:54:26.606Z,100596.84
2023-03-29T15:57:02.655Z,100565.66
2023-03-29T15:59:37.161Z,100609.81
2023-03-29T16:02:06.970Z,100605.50
2023-03-29T16:04:36.074Z,100584.72
2023-03-29T16:07:11.828Z,100501.56
2023-03-29T16:09:41.136Z,100584.69
2023-03-29T16:12:10.905Z,100615.88
2023-03-29T16:14:42.594Z,100589.00
2023-03-29T16:17:13.062Z,100575.16
2023-03-29T16:19:42.120Z,100629.69
2023-03-29T16:22:11.349Z,100547.38
2023-03-29T16:24:40.390Z,100395.78
2023-03-29T16:27:09.620Z,100616.66
2023-03-29T16:29:38.532Z,100635.66
2023-03-29T16:32:07.861Z,100650.41
2023-03-29T16:34:36.674Z,100630.47
2023-03-29T16:37:07.412Z,100614.88
2023-03-29T16:39:38.720Z,100617.47
2023-03-29T16:42:12.211Z,100648.66
2023-03-29T16:44:41.712Z,100671.19
2023-03-29T16:47:13.065Z,100576.69
2023-03-29T16:49:45.680Z,100662.50
2023-03-29T16:52:14.807Z,100663.31
2023-03-29T16:54:44.213Z,100691.09
2023-03-29T16:57:13.101Z,100665.91
2023-03-29T16:59:45.760Z,100689.34
2023-03-29T17:02:17.185Z,100665.91
2023-03-29T17:04:46.392Z,100677.13
2023-03-29T17:07:16.231Z,100677.09
2023-03-29T17:09:46.736Z,100680.56
2023-03-29T17:12:16.026Z,100691.81
2023-03-29T17:14:45.394Z,100671.88
2023-03-29T17:17:14.361Z,100720.41
2023-03-29T17:19:43.245Z,100686.50
2023-03-29T17:22:12.265Z,100737.66
2023-03-29T17:24:41.188Z,100689.97
2023-03-29T17:27:09.987Z,100695.16
2023-03-29T17:29:39.077Z,100742.81
2023-03-29T17:32:08.239Z,100716.72
2023-03-29T17:34:37.589Z,100726.31
2023-03-29T17:37:07.554Z,100728.91
2023-03-29T17:39:38.206Z,100754.84
2023-03-29T17:44:31.950Z,100661.06
2023-03-29T17:47:03.937Z,100707.03
2023-03-29T17:49:32.807Z,100749.56
2023-03-29T17:52:01.538Z,100766.88
2023-03-29T17:54:30.847Z,100740.81
2023-03-29T17:57:00.525Z,100735.56
2023-03-29T17:59:29.197Z,100736.44
2023-03-29T18:01:58.457Z,100732.09
2023-03-29T18:04:27.654Z,100768.50
2023-03-29T18:06:56.659Z,100753.69
2023-03-29T18:09:30.229Z,100749.38
2023-03-29T18:11:59.809Z,100677.31
2023-03-29T18:14:28.623Z,100763.22
2023-03-29T18:16:57.929Z,100728.38
2023-03-29T18:19:27.305Z,100744.09
2023-03-29T18:21:57.013Z,100755.28
2023-03-29T18:24:25.658Z,100756.13
2023-03-29T18:26:54.820Z,100704.84
2023-03-29T18:29:24.931Z,100789.94
2023-03-29T18:31:54.091Z,100779.50
2023-03-29T18:34:23.360Z,100719.47
2023-03-29T18:36:54.314Z,100782.00
2023-03-29T18:39:23.329Z,100801.94
2023-03-29T18:41:53.414Z,100785.38
2023-03-29T18:44:23.486Z,100807.06
2023-03-29T18:46:55.477Z,100831.28
2023-03-29T18:49:25.727Z,100829.53
2023-03-29T18:51:55.977Z,100771.31
2023-03-29T18:54:24.703Z,100740.09
2023-03-29T18:56:53.548Z,100815.59
2023-03-29T18:59:22.427Z,100807.63
2023-03-29T19:01:55.784Z,100792.03
2023-03-29T19:04:26.874Z,100833.66
2023-03-29T19:06:56.948Z,100838.88
2023-03-29T19:09:25.684Z,100843.16
2023-03-29T19:11:54.867Z,100758.78
2023-03-29T19:14:26.086Z,100835.31
2023-03-29T19:16:55.087Z,100811.72
2023-03-29T19:19:27.035Z,100823.00
2023-03-29T19:21:59.799Z,100847.38
2023-03-29T19:24:29.649Z,100831.63
2023-03-29T19:26:59.097Z,100848.94
2023-03-29T19:29:28.000Z,100844.56
2023-03-29T19:31:57.774Z,100845.47
2023-03-29T19:34:27.425Z,100865.31
2023-03-29T19:36:56.097Z,100823.69
2023-03-29T19:39:25.973Z,100861.91
2023-03-29T19:41:57.419Z,100825.38
2023-03-29T19:44:26.389Z,100828.72
2023-03-29T19:46:55.200Z,100865.25
2023-03-29T19:49:24.146Z,100838.28
2023-03-29T19:51:57.406Z,100871.28
2023-03-29T19:54:27.298Z,100862.50
2023-03-29T19:56:58.074Z,100883.31
2023-03-29T19:59:28.028Z,100858.03
2023-03-29T20:01:57.397Z,100832.75
2023-03-29T20:04:26.846Z,100887.44
2023-03-29T20:06:55.496Z,100895.31
2023-03-29T20:09:24.278Z,100868.28
2023-03-29T20:11:53.499Z,100891.78
2023-03-29T20:14:22.833Z,100860.38
2023-03-29T20:16:52.086Z,100805.59
2023-03-29T20:19:30.387Z,100882.06
2023-03-29T20:21:59.716Z,100894.09
2023-03-29T20:24:28.628Z,100926.22
2023-03-29T20:26:58.329Z,100899.22
2023-03-29T20:29:27.897Z,100911.31
2023-03-29T20:31:59.826Z,100932.19
2023-03-29T20:34:29.688Z,100940.75
2023-03-29T20:37:01.526Z,100900.84
2023-03-29T20:39:32.349Z,100859.09
2023-03-29T20:42:01.889Z,100889.53
2023-03-29T20:44:33.519Z,100930.22
2023-03-29T20:47:04.638Z,100921.56
2023-03-29T20:49:41.132Z,100820.50
2023-03-29T20:52:18.119Z,100923.81
2023-03-29T20:54:47.474Z,100934.38
2023-03-29T20:57:19.903Z,100922.16
2023-03-29T20:59:49.896Z,100930.00
2023-03-29T21:02:22.035Z,100948.22
2023-03-29T21:04:52.777Z,100961.94
2023-03-29T21:07:22.265Z,100937.53
2023-03-29T21:09:51.914Z,100966.31
2023-03-29T21:12:24.270Z,100948.91
2023-03-29T21:14:53.146Z,100865.25
2023-03-29T21:17:22.129Z,100936.53
2023-03-29T21:19:50.814Z,100910.34
2023-03-29T21:22:19.729Z,100871.13
2023-03-29T21:24:48.369Z,100972.09
2023-03-29T21:27:20.338Z,100942.28
2023-03-29T21:29:50.455Z,100974.50
2023-03-29T21:32:22.114Z,100965.72
2023-03-29T21:34:51.116Z,100950.19
2023-03-29T21:37:19.976Z,100961.38
2023-03-29T21:39:48.707Z,100985.56
2023-03-29T21:42:17.834Z,100848.03
2023-03-29T21:44:46.549Z,100984.72
2023-03-29T21:47:15.314Z,100948.94
2023-03-29T21:49:43.948Z,100987.97
2023-03-29T21:52:14.259Z,100986.19
2023-03-29T21:54:43.252Z,101018.22
2023-03-29T21:57:12.924Z,100953.16
2023-03-29T21:59:41.754Z,100983.59
2023-03-29T22:02:10.564Z,100844.28
2023-03-29T22:04:39.459Z,100975.66
2023-03-29T22:07:09.013Z,100959.75
2023-03-29T22:09:38.294Z,100987.56
2023-03-29T22:12:07.415Z,100864.91
2023-03-29T22:14:36.617Z,101002.38
2023-03-29T22:17:06.848Z,100989.25
2023-03-29T22:19:40.130Z,100972.59
2023-03-29T22:22:14.192Z,101000.34
2023-03-29T22:24:43.336Z,101001.13
2023-03-29T22:27:13.015Z,101015.94
2023-03-29T22:29:41.938Z,101017.66
2023-03-29T22:32:11.313Z,101001.03
2023-03-29T22:34:40.168Z,101023.47
2023-03-29T22:37:08.904Z,101026.19
2023-03-29T22:39:42.477Z,101009.56
2023-03-29T22:42:12.149Z,101015.53
2023-03-29T22:44:41.487Z,101008.56
2023-03-29T22:47:10.350Z,101043.28
2023-03-29T22:49:39.537Z,101026.81
2023-03-29T22:52:08.512Z,100945.78
2023-03-29T22:54:37.389Z,101020.72
2023-03-29T22:57:06.585Z,101042.47
2023-03-29T22:59:36.327Z,101038.03
2023-03-29T23:02:05.596Z,101045.03
2023-03-29T23:04:34.461Z,101042.38
2023-03-29T23:07:03.629Z,101064.97
2023-03-29T23:09:32.410Z,101073.50
2023-03-29T23:12:02.024Z,101051.72
2023-03-29T23:14:30.830Z,101054.38
2023-03-29T23:16:59.782Z,101044.81
2023-03-29T23:19:29.255Z,101076.16
2023-03-29T23:21:58.469Z,101062.13
2023-03-29T23:24:27.407Z,101045.47
2023-03-29T23:26:56.208Z,100985.25
2023-03-29T23:29:28.067Z,101072.47
2023-03-29T23:31:57.546Z,101074.97
2023-03-29T23:34:26.448Z,101056.66
2023-03-29T23:36:55.109Z,100992.16
2023-03-29T23:39:24.384Z,101086.16
2023-03-29T23:41:53.071Z,101093.22
2023-03-29T23:44:22.150Z,101079.16
2023-03-29T23:46:51.022Z,101021.72
2023-03-29T23:49:23.589Z,101080.06
2023-03-29T23:51:53.031Z,101093.00
2023-03-29T23:54:21.886Z,101073.78
2023-03-29T23:56:50.766Z,101069.34
2023-03-29T23:59:19.812Z,101113.75
